Latest Coastal Weather Observations for Cape Nelson

IDV60701

Issued at 9:41 am EST Sunday 22 September 2019 (issued every 10 minutes, with the page automatically refreshed every 10 minutes)

About coastal observations | Map of coastal stations | Coastal observations for VIC | Marine services | Other Formats
Station Details ID: 090184 Name: CAPE NELSON LIGHTHOUSE Lat: -38.43 Lon: 141.54 Height: 45.4 m
Data from the previous 72 hours. | See also: Recent months at Cape Nelson
Date/Time
EST
Wind Sea
Height
m
Swell Vis
km
Cloud Weather Temp
°C
Press
hPa
Rain since
9am
mm
Dir  Spd
kts
Gust
kts
Height
m
Period
s
Dir
22/09:30am NW 13 18 - - - - - - - 10.5 1021.4 0.0
22/09:00am NW 14 21 - - - - - - - 9.8 1021.4 14.4
22/08:30am NNW 10 15 - - - - - - - 8.6 1021.1 14.4
22/08:00am NNW 11 15 - - - - - - - 7.2 1020.8 14.4
22/07:30am NNW 9 12 - - - - - - - 7.1 1020.8 14.4
22/07:00am NNW 9 14 - - - - - - - 5.8 1020.6 14.2
22/06:30am NNW 10 13 - - - - - - - 5.8 1020.2 14.2
22/06:00am NNW 9 15 - - - - - - - 5.9 1019.7 14.0
22/05:30am N 9 12 - - - - - - - 5.8 1019.5 14.0
22/05:00am NNW 10 13 - - - - - - - 6.4 1019.2 14.0
22/04:30am NW 11 18 - - - - - - - 7.2 1019.1 14.0
22/04:00am NW 11 15 - - - - - - - 7.0 1019.1 13.8
22/03:37am NW 11 23 - - - - - - - 7.2 1019.3 13.4
22/03:30am NNW 10 13 - - - - - - - 7.1 1019.0 13.2
22/03:00am NW 8 13 - - - - - - - 7.5 1019.2 13.2
22/02:30am NNW 8 13 - - - - - - - 7.6 1019.1 13.2
22/02:00am NW 11 19 - - - - - - - 8.2 1019.1 13.2
22/01:30am WNW 10 16 - - - - - - - 9.4 1019.1 13.0
22/01:00am W 15 22 - - - - - - - 9.7 1019.2 13.0
22/12:30am W 14 20 - - - - - - - 9.8 1019.1 13.0
22/12:00am W 12 18 - - - - - - - 10.2 1019.0 13.0
 
Date/Time
EST
Wind Sea
Height
m
Swell Vis
km
Cloud Weather Temp
°C
Press
hPa
Rain since
9am
mm
Dir  Spd
kts
Gust
kts
Height
m
Period
s
Dir
21/11:30pm W 13 21 - - - - - - - 9.9 1018.9 13.0
21/11:00pm W 14 20 - - - - - - - 9.9 1018.8 13.0
21/10:49pm W 16 24 - - - - - - - 10.1 1018.8 13.0
21/10:30pm WNW 11 21 - - - - - - - 9.9 1018.6 13.0
21/10:00pm W 16 23 - - - - - - - 10.2 1018.7 13.0
21/09:30pm W 17 23 - - - - - - - 10.2 1018.6 13.0
21/09:00pm W 13 21 - - - - - - - 10.1 1018.4 13.0
21/08:37pm W 17 28 - - - - - - - 10.7 1018.2 13.0
21/08:30pm W 17 22 - - - - - - - 10.7 1018.2 13.0
21/08:00pm W 15 23 - - - - - - - 10.6 1017.8 13.0
21/07:30pm W 15 21 - - - - - - - 10.7 1017.4 13.0
21/07:00pm W 16 22 - - - - - - - 10.9 1017.0 13.0
21/06:30pm NW 12 20 - - - - - - - 10.5 1016.3 13.0
21/06:00pm WSW 19 32 - - - - - - Rain 9.2 1016.1 13.0
21/05:56pm W 17 28 - - - - - - - 10.8 1015.9 12.6
21/05:53pm W 15 25 - - - - - - - 10.8 1015.8 12.6
21/05:30pm WNW 12 18 - - - - - - - 10.9 1015.2 12.6
21/05:00pm WNW 11 17 - - - - - - - 11.0 1014.8 12.6
21/04:30pm NW 11 18 - - - - - - - 10.8 1014.3 12.4
21/04:00pm NNW 11 17 - - - - - - - 10.4 1013.7 12.2
21/03:30pm NW 10 17 - - - - - - - 10.8 1013.2 11.8
21/03:00pm W 14 19 - - - - - - Recent precip. 9.9 1013.1 11.8
21/02:30pm W 15 20 - - - - - - - 9.9 1012.5 11.8
21/02:00pm NNW 9 17 - - - - - - - 9.8 1012.1 11.0
21/01:30pm NW 9 15 - - - - - - - 11.3 1011.6 10.0
21/01:00pm NW 9 16 - - - - - - - 10.1 1011.2 10.0
21/12:30pm NNE 9 15 - - - - - - - 9.9 1010.9 9.8
21/12:00pm NE 11 16 - - - - - - Recent precip. 10.3 1010.4 9.6
21/11:30am E 13 23 - - - - - - - 10.0 1009.6 9.6
21/11:00am SSE 15 27 - - - - - - - 9.6 1009.2 9.4
21/10:40am SSE 14 25 - - - - - - - 9.6 1008.7 9.2
21/10:30am SE 14 25 - - - - - - - 9.8 1008.5 8.6
21/10:05am SSE 15 26 - - - - - - - 9.5 1008.6 6.2
21/10:00am SSW 10 26 - - - - - - - 9.6 1008.6 4.4
21/09:58am S 6 22 - - - - - - - 9.8 1008.4 2.6
21/09:30am SE 3 5 - - - - - - - 11.5 1008.5 0.6
21/09:00am ESE 4 5 - - - - - - Rain 11.5 1008.0 10.4
21/08:30am CALM 0 0 - - - - - - - 11.6 1008.6 9.2
21/08:00am CALM 0 0 - - - - - - - 11.4 1007.9 7.4
21/07:30am SE 4 7 - - - - - - - 11.3 1008.1 4.8
21/07:00am SE 6 9 - - - - - - - 11.6 1007.5 3.0
21/06:30am ESE 7 9 - - - - - - - 11.6 1007.5 1.6
21/06:00am SE 9 15 - - - - - - Recent precip. 11.5 1006.8 1.0
21/05:30am SSE 8 10 - - - - - - - 11.7 1007.5 0.6
21/05:00am SE 8 11 - - - - - - - 11.7 1008.1 0.0
21/04:30am SE 9 13 - - - - - - - 11.8 1007.9 0.0
21/04:00am SSE 9 11 - - - - - - - 11.7 1008.6 0.0
21/03:30am SSE 9 12 - - - - - - - 11.7 1009.4 0.0
21/03:00am SSE 13 17 - - - - - - - 11.7 1008.9 0.0
21/02:30am SSE 13 20 - - - - - - - 11.7 1010.0 0.0
21/02:00am SSE 15 21 - - - - - - - 12.1 1009.7 0.0
21/01:30am S 15 21 - - - - - - - 12.2 1009.9 0.0
21/01:00am S 15 21 - - - - - - - 12.3 1009.9 0.0
21/12:30am SSE 17 23 - - - - - - - 12.4 1009.8 0.0
21/12:00am SSE 17 22 - - - - - - - 12.5 1010.0 0.0
 
Date/Time
EST
Wind Sea
Height
m
Swell Vis
km
Cloud Weather Temp
°C
Press
hPa
Rain since
9am
mm
Dir  Spd
kts
Gust
kts
Height
m
Period
s
Dir
20/11:30pm S 15 21 - - - - - - - 12.9 1010.4 0.0
20/11:00pm SSE 8 17 - - - - - - - 13.1 1011.7 0.0
20/10:30pm S 7 12 - - - - - - - 13.4 1011.6 0.0
20/10:00pm SSE 5 9 - - - - - - - 13.5 1012.3 0.0
20/09:30pm S 9 12 - - - - - - - 13.5 1012.2 0.0
20/09:00pm SSE 8 10 - - - - - - - 13.6 1012.1 0.0
20/08:30pm S 5 8 - - - - - - - 13.7 1012.1 0.0
20/08:00pm SSW 5 8 - - - - - - - 13.8 1012.2 0.0
20/07:30pm S 7 10 - - - - - - - 14.0 1011.9 0.0
20/07:00pm SSW 5 7 - - - - - - - 14.2 1011.8 0.0
20/06:30pm SW 4 5 - - - - - - - 14.5 1012.0 0.0
20/06:00pm WSW 9 12 - - - - - - - 14.9 1012.4 0.0
20/05:30pm W 7 10 - - - - - - - 16.3 1012.2 0.0
20/05:00pm WSW 7 9 - - - - - - - 16.2 1011.6 0.0
20/04:30pm WSW 4 9 - - - - - - - 17.8 1011.6 0.0
20/04:00pm SW 3 5 - - - - - - - 20.1 1011.4 0.0
20/03:30pm SW 5 7 - - - - - - - 18.8 1011.3 0.0
20/03:00pm SSE 4 5 - - - - - - - 20.0 1011.7 0.0
20/02:30pm SW 2 6 - - - - - - - 20.6 1011.8 0.0
20/02:00pm WSW 7 8 - - - - - - - 19.7 1011.9 0.0
20/01:30pm W 7 9 - - - - - - - 20.5 1012.5 0.0
20/01:00pm W 7 11 - - - - - - - 20.6 1013.0 0.0
20/12:30pm W 8 11 - - - - - - - 21.1 1013.0 0.0
20/12:00pm WNW 10 13 - - - - - - - 21.3 1013.6 0.0
20/11:30am WNW 9 14 - - - - - - - 20.6 1013.4 0.0
20/11:00am NW 8 12 - - - - - - - 21.3 1013.7 0.0
20/10:30am NW 10 13 - - - - - - - 21.1 1013.8 0.0
20/10:00am NNW 8 11 - - - - - - - 20.4 1013.7 0.0
20/09:30am NW 11 17 - - - - - - - 19.6 1013.6 0.0
20/09:00am NW 12 17 - - - - - - - 18.7 1013.5 0.0
20/08:30am NW 13 19 - - - - - - - 19.1 1013.0 0.0
20/08:00am NNW 13 20 - - - - - - - 19.3 1012.4 0.0
20/07:30am NNW 12 19 - - - - - - - 19.4 1012.1 0.0
20/07:00am N 13 21 - - - - - - - 19.8 1011.5 0.0
20/06:30am N 17 25 - - - - - - - 20.5 1011.1 0.0
20/06:00am N 15 26 - - - - - - - 20.6 1010.6 0.0
20/05:30am N 17 27 - - - - - - - 20.7 1010.1 0.0
20/05:00am N 17 28 - - - - - - - 20.6 1009.4 0.0
20/04:31am N 19 29 - - - - - - - 20.9 1009.4 0.0
20/04:30am N 20 29 - - - - - - - 21.0 1009.5 0.0
20/04:02am N 19 29 - - - - - - - 21.1 1008.9 0.0
20/04:00am N 20 29 - - - - - - - 21.1 1008.9 0.0
20/03:30am N 21 34 - - - - - - - 21.2 1008.6 0.0
20/03:00am N 21 32 - - - - - - - 21.4 1008.8 0.0
20/02:32am N 19 32 - - - - - - - 21.5 1008.8 0.0
20/02:30am N 20 28 - - - - - - - 21.5 1008.8 0.0
20/02:00am N 20 31 - - - - - - - 21.7 1009.1 0.0
20/01:30am N 19 30 - - - - - - - 22.0 1009.4 0.0
20/01:00am N 20 30 - - - - - - - 22.1 1009.5 0.0
20/12:30am N 19 29 - - - - - - - 22.0 1009.6 0.0
20/12:04am N 21 31 - - - - - - - 22.1 1009.5 0.0
20/12:00am N 22 31 - - - - - - - 22.2 1009.4 0.0
 
Date/Time
EST
Wind Sea
Height
m
Swell Vis
km
Cloud Weather Temp
°C
Press
hPa
Rain since
9am
mm
Dir  Spd
kts
Gust
kts
Height
m
Period
s
Dir
19/11:30pm N 23 34 - - - - - - - 22.6 1009.4 0.0
19/11:00pm N 21 33 - - - - - - - 22.6 1009.4 0.0
19/10:30pm N 23 40 - - - - - - - 22.8 1009.4 0.0
19/10:00pm N 22 33 - - - - - - - 22.4 1009.3 0.0
19/09:30pm N 22 36 - - - - - - - 22.2 1009.3 0.0
19/09:03pm N 20 30 - - - - - - - 21.9 1009.6 0.0
19/09:00pm N 19 28 - - - - - - - 22.0 1009.7 0.0
19/08:30pm N 17 28 - - - - - - - 21.6 1009.7 0.0
19/08:00pm N 15 25 - - - - - - - 20.9 1009.6 0.0
19/07:39pm N 15 25 - - - - - - - 21.1 1009.6 0.0
19/07:30pm N 15 21 - - - - - - - 21.0 1009.6 0.0
19/07:02pm N 17 28 - - - - - - - 21.5 1009.6 0.0
19/07:00pm N 16 24 - - - - - - - 21.4 1009.6 0.0
19/06:35pm N 17 27 - - - - - - - 21.5 1009.6 0.0
19/06:30pm N 19 27 - - - - - - - 21.5 1009.5 0.0
19/06:00pm N 19 33 - - - - - - - 21.8 1009.2 0.0
19/05:30pm N 22 33 - - - - - - - 22.0 1008.7 0.0
19/05:00pm N 21 35 - - - - - - - 22.4 1008.4 0.0
19/04:30pm N 24 38 - - - - - - - 23.0 1008.2 0.0
19/04:00pm N 22 33 - - - - - - - 23.0 1007.9 0.0
19/03:30pm N 24 38 - - - - - - - 22.2 1008.2 0.0
19/03:00pm N 23 37 - - - - - - - 22.8 1008.6 0.0
19/02:30pm N 24 35 - - - - - - - 23.0 1008.9 0.0
19/02:00pm N 21 32 - - - - - - - 22.4 1009.4 0.0
19/01:30pm N 24 36 - - - - - - - 21.9 1009.4 0.0
19/01:00pm N 25 35 - - - - - - - 20.8 1009.9 0.0
19/12:30pm N 28 42 - - - - - - - 20.7 1010.3 0.0
19/12:00pm N 26 41 - - - - - - - 19.6 1010.9 0.0
19/11:52am NNE 24 39 - - - - - - - 19.7 1011.1 0.0
19/11:30am NNE 19 29 - - - - - - - 19.9 1012.1 0.0
19/11:00am N 21 32 - - - - - - - 18.7 1013.3 0.0
19/10:30am N 16 29 - - - - - - - 19.1 1013.9 0.0
19/10:25am N 15 28 - - - - - - - 18.7 1013.9 0.0
19/10:00am N 13 23 - - - - - - - 18.1 1014.8 0.0
19/09:49am NNE 15 27 - - - - - - - 18.0 1015.1 0.0

Other formats

Comma delimited format used in spreadsheet applications
http://www.bom.gov.au/fwo/IDV60701/IDV60701.94826.axf

JavaScript Object Notation format (JSON) in row-major order
http://www.bom.gov.au/fwo/IDV60701/IDV60701.94826.json

Data quality

Most of these data are generated automatically and are frequently updated. Quality checks on data are not normally performed. It is possible for incorrect values to appear. Refer to information at About Latest Weather Observations and please check the disclaimer before using these data.